LSME METAR and TAF | Updated Today

LSME METAR

Emmen Air Base

Observation time: 32 min. ago

LSME 080550Z AUTO VRB02KT 5000NDV RA FEW024 OVC027 01/01 Q1002 RMK

Need help? Read our tutorial on how to read METARs or read the parsed version below.

Emmen Air Base (LSME) METAR

  • Weather conditions on Wed, 08 Dec 2021 05:50:00 +0000 (32 min. ago):
  • Present conditions: Rain
  • Clouds: A few at 732 meters; overcast sky at 823 meters
  • Visibility:
  • Wind: Variable at 2 knots
  • Temperature: 1 celsius
  • Dew point: 1 celsius
  • Pressure: 1002 millibars
  • Remarks: None


Useful to know...